Ocoee 3 Observed Data For Previous 48 Hours

Caption
Day and Hour Reservoir Elevation (behind dam)* Tailwater Elevation (below dam)* Average Hourly Discharge*
1/15/2018 2 AM EST 1,431.32 1,118.16 69
1/15/2018 3 AM EST 1,431.15 1,118.66 1,049
1/15/2018 4 AM EST 1,430.99 1,118.56 1,049
1/15/2018 5 AM EST 1,430.82 1,118.62 1,049
1/15/2018 6 AM EST 1,430.65 1,118.54 1,047
1/15/2018 7 AM EST 1,430.47 1,118.63 1,051
1/15/2018 8 AM EST 1,430.30 1,118.57 1,046
1/15/2018 9 AM EST 1,430.35 1,118.62 1,051
1/15/2018 10 AM EST 1,430.88 1,114.09 12
1/15/2018 11 AM EST 1,431.43 1,114.09 0
1/15/2018 12 PM EST 1,431.89 1,114.09 0
1/15/2018 1 PM EST 1,432.24 1,114.09 0
1/15/2018 2 PM EST 1,432.48 1,114.09 0
1/15/2018 3 PM EST 1,432.62 1,118.07 61
1/15/2018 4 PM EST 1,432.51 1,118.62 1,040
1/15/2018 5 PM EST 1,432.40 1,118.61 1,044
1/15/2018 6 PM EST 1,432.27 1,118.61 1,040
1/15/2018 7 PM EST 1,432.14 1,118.62 1,044
1/15/2018 8 PM EST 1,432.00 1,118.65 1,042
1/15/2018 9 PM EST 1,431.86 1,118.59 1,046
1/15/2018 10 PM EST 1,431.72 1,118.56 1,046
1/15/2018 11 PM EST 1,431.61 1,118.50 1,048
1/16/2018 12 AM EST 1,431.98 1,114.09 12
1/16/2018 1 AM EST 1,432.39 1,114.09 0
1/16/2018 2 AM EST 1,432.69 1,114.09 0
1/16/2018 3 AM EST 1,432.90 1,114.09 0
1/16/2018 4 AM EST 1,433.03 1,117.97 59
1/16/2018 5 AM EST 1,432.93 1,118.53 1,043
1/16/2018 6 AM EST 1,432.81 1,118.57 1,043
1/16/2018 7 AM EST 1,432.68 1,118.59 1,043
1/16/2018 8 AM EST 1,432.55 1,118.62 1,047
1/16/2018 9 AM EST 1,432.42 1,118.61 1,045
1/16/2018 10 AM EST 1,432.28 1,118.58 1,043
1/16/2018 11 AM EST 1,432.14 1,118.56 1,040
1/16/2018 12 PM EST 1,431.99 1,118.60 1,047
1/16/2018 1 PM EST 1,431.85 1,118.61 1,042
1/16/2018 2 PM EST 1,432.01 1,114.09 13
1/16/2018 3 PM EST 1,432.36 1,114.09 0
1/16/2018 4 PM EST 1,432.73 1,114.09 0
1/16/2018 5 PM EST 1,433.01 1,114.09 0
1/16/2018 6 PM EST 1,433.07 1,119.18 612
1/16/2018 7 PM EST 1,432.93 1,119.14 1,325
1/16/2018 8 PM EST 1,432.77 1,119.20 1,329
1/16/2018 9 PM EST 1,432.58 1,119.25 1,326
1/16/2018 10 PM EST 1,432.40 1,119.20 1,329
1/16/2018 11 PM EST 1,432.20 1,119.35 1,326
1/17/2018 12 AM EST 1,432.05 1,118.66 1,070
1/17/2018 1 AM EST 1,431.98 1,118.57 1,046
1/17/2018 2 AM EST 1,432.10 1,118.59 1,050
1/17/2018 3 AM EST 1,432.27 1,119.26 1,064
1/17/2018 4 AM EST 1,432.40 1,119.33 1,327
1/17/2018 5 AM EST 1,432.47 1,119.30 1,326
1/17/2018 6 AM EST 1,432.45 1,119.10 1,328
1/17/2018 7 AM EST 1,432.36 1,119.14 1,326
1/17/2018 8 AM EST 1,432.21 1,119.17 1,327
1/17/2018 9 AM EST 1,432.03 1,119.37 1,325
1/17/2018 10 AM EST 1,431.84 1,119.23 1,327
1/17/2018 11 AM EST 1,431.62 1,119.23 1,324
1/17/2018 12 PM EST 1,431.41 1,119.15 1,326
1/17/2018 1 PM EST 1,431.20 1,119.32 1,323
1/17/2018 2 PM EST 1,431.20 1,119.26 1,325
1/17/2018 3 PM EST 1,431.38 1,118.59 1,071
1/17/2018 4 PM EST 1,431.59 1,118.66 1,050
1/17/2018 5 PM EST 1,431.75 1,119.25 1,066
1/17/2018 6 PM EST 1,431.75 1,119.23 1,323
1/17/2018 7 PM EST 1,431.66 1,119.26 1,325
1/17/2018 8 PM EST 1,431.51 1,119.46 1,323
1/17/2018 9 PM EST 1,431.33 1,119.22 1,325
1/17/2018 10 PM EST 1,431.12 1,119.30 1,323

Elevations are in feet above sea level. Discharges are in cubic feet per second and are reported at the end of the hour.